sensor_id;sensor_type;location;lat;lon;timestamp;P1;durP1;ratioP1;P2;durP2;ratioP2
24277;SDS011;12394;42.692;23.314;2024-03-08T00:02:03;3.20;;;1.70;;
24277;SDS011;12394;42.692;23.314;2024-03-08T00:04:28;4.20;;;2.87;;
24277;SDS011;12394;42.692;23.314;2024-03-08T00:06:54;3.10;;;2.50;;
24277;SDS011;12394;42.692;23.314;2024-03-08T00:09:19;3.40;;;2.50;;
24277;SDS011;12394;42.692;23.314;2024-03-08T00:11:46;2.80;;;2.10;;
24277;SDS011;12394;42.692;23.314;2024-03-08T00:14:12;1.80;;;1.70;;
24277;SDS011;12394;42.692;23.314;2024-03-08T00:16:37;3.07;;;2.20;;
24277;SDS011;12394;42.692;23.314;2024-03-08T00:19:03;1.93;;;1.70;;
24277;SDS011;12394;42.692;23.314;2024-03-08T00:21:29;2.57;;;2.17;;
24277;SDS011;12394;42.692;23.314;2024-03-08T00:23:54;2.17;;;1.80;;
24277;SDS011;12394;42.692;23.314;2024-03-08T00:26:20;3.80;;;2.30;;
24277;SDS011;12394;42.692;23.314;2024-03-08T00:28:47;2.23;;;1.63;;
24277;SDS011;12394;42.692;23.314;2024-03-08T00:31:14;1.43;;;1.30;;
24277;SDS011;12394;42.692;23.314;2024-03-08T00:33:42;2.30;;;1.90;;
24277;SDS011;12394;42.692;23.314;2024-03-08T00:36:08;3.93;;;1.90;;
24277;SDS011;12394;42.692;23.314;2024-03-08T00:38:33;2.23;;;1.90;;
24277;SDS011;12394;42.692;23.314;2024-03-08T00:40:59;2.20;;;1.90;;
24277;SDS011;12394;42.692;23.314;2024-03-08T00:43:25;3.80;;;1.70;;
24277;SDS011;12394;42.692;23.314;2024-03-08T00:45:51;1.90;;;1.40;;
24277;SDS011;12394;42.692;23.314;2024-03-08T00:48:16;3.20;;;2.20;;
24277;SDS011;12394;42.692;23.314;2024-03-08T00:50:42;9.73;;;8.23;;
24277;SDS011;12394;42.692;23.314;2024-03-08T00:53:10;3.23;;;2.73;;
24277;SDS011;12394;42.692;23.314;2024-03-08T00:55:36;2.40;;;1.93;;
24277;SDS011;12394;42.692;23.314;2024-03-08T00:58:03;2.20;;;2.00;;
24277;SDS011;12394;42.692;23.314;2024-03-08T01:00:29;3.77;;;1.90;;
24277;SDS011;12394;42.692;23.314;2024-03-08T01:02:54;2.63;;;2.10;;
24277;SDS011;12394;42.692;23.314;2024-03-08T01:05:20;2.63;;;2.00;;
24277;SDS011;12394;42.692;23.314;2024-03-08T01:07:45;1.80;;;1.70;;
24277;SDS011;12394;42.692;23.314;2024-03-08T01:10:11;2.07;;;1.80;;
24277;SDS011;12394;42.692;23.314;2024-03-08T01:12:37;2.60;;;1.87;;
24277;SDS011;12394;42.692;23.314;2024-03-08T01:15:04;2.40;;;1.90;;
24277;SDS011;12394;42.692;23.314;2024-03-08T01:17:30;2.90;;;2.20;;
24277;SDS011;12394;42.692;23.314;2024-03-08T01:19:56;2.53;;;1.97;;
24277;SDS011;12394;42.692;23.314;2024-03-08T01:22:21;2.63;;;1.90;;
24277;SDS011;12394;42.692;23.314;2024-03-08T01:24:47;2.80;;;1.80;;
24277;SDS011;12394;42.692;23.314;2024-03-08T01:27:13;3.33;;;1.70;;
24277;SDS011;12394;42.692;23.314;2024-03-08T01:29:39;3.77;;;1.77;;
24277;SDS011;12394;42.692;23.314;2024-03-08T01:32:05;2.77;;;2.10;;
24277;SDS011;12394;42.692;23.314;2024-03-08T01:34:31;2.40;;;1.80;;
24277;SDS011;12394;42.692;23.314;2024-03-08T01:36:58;1.70;;;1.60;;
24277;SDS011;12394;42.692;23.314;2024-03-08T01:39:24;2.07;;;1.87;;
24277;SDS011;12394;42.692;23.314;2024-03-08T01:41:50;2.67;;;2.00;;
24277;SDS011;12394;42.692;23.314;2024-03-08T01:44:16;2.73;;;2.00;;
24277;SDS011;12394;42.692;23.314;2024-03-08T01:46:46;2.30;;;1.87;;
24277;SDS011;12394;42.692;23.314;2024-03-08T01:49:14;2.17;;;1.50;;
24277;SDS011;12394;42.692;23.314;2024-03-08T01:51:40;2.20;;;1.60;;
24277;SDS011;12394;42.692;23.314;2024-03-08T01:54:06;2.97;;;1.80;;
24277;SDS011;12394;42.692;23.314;2024-03-08T01:56:35;1.90;;;1.70;;
24277;SDS011;12394;42.692;23.314;2024-03-08T01:59:02;1.57;;;1.47;;
24277;SDS011;12394;42.692;23.314;2024-03-08T02:01:28;1.83;;;1.73;;
24277;SDS011;12394;42.692;23.314;2024-03-08T02:03:54;2.77;;;1.63;;
24277;SDS011;12394;42.692;23.314;2024-03-08T02:06:20;2.87;;;2.00;;
24277;SDS011;12394;42.692;23.314;2024-03-08T02:08:45;3.30;;;1.90;;
24277;SDS011;12394;42.692;23.314;2024-03-08T02:11:11;2.63;;;2.07;;
24277;SDS011;12394;42.692;23.314;2024-03-08T02:13:37;3.37;;;2.20;;
24277;SDS011;12394;42.692;23.314;2024-03-08T02:16:03;2.77;;;2.17;;
24277;SDS011;12394;42.692;23.314;2024-03-08T02:18:29;3.47;;;1.87;;
24277;SDS011;12394;42.692;23.314;2024-03-08T02:20:59;2.33;;;2.00;;
24277;SDS011;12394;42.692;23.314;2024-03-08T02:23:27;2.60;;;2.37;;
24277;SDS011;12394;42.692;23.314;2024-03-08T02:25:54;2.53;;;2.20;;
24277;SDS011;12394;42.692;23.314;2024-03-08T02:28:21;2.77;;;2.23;;
24277;SDS011;12394;42.692;23.314;2024-03-08T02:30:48;2.83;;;1.93;;
24277;SDS011;12394;42.692;23.314;2024-03-08T02:33:14;3.37;;;1.60;;
24277;SDS011;12394;42.692;23.314;2024-03-08T02:35:46;1.77;;;1.60;;
24277;SDS011;12394;42.692;23.314;2024-03-08T02:38:16;3.10;;;2.07;;
24277;SDS011;12394;42.692;23.314;2024-03-08T02:40:47;2.13;;;1.93;;
24277;SDS011;12394;42.692;23.314;2024-03-08T02:43:14;2.07;;;1.87;;
24277;SDS011;12394;42.692;23.314;2024-03-08T02:45:41;2.33;;;1.97;;
24277;SDS011;12394;42.692;23.314;2024-03-08T02:48:08;2.30;;;2.07;;
24277;SDS011;12394;42.692;23.314;2024-03-08T02:50:34;2.40;;;1.90;;
24277;SDS011;12394;42.692;23.314;2024-03-08T02:53:00;3.10;;;2.40;;
24277;SDS011;12394;42.692;23.314;2024-03-08T02:55:26;3.03;;;2.70;;
24277;SDS011;12394;42.692;23.314;2024-03-08T02:57:52;2.40;;;2.20;;
24277;SDS011;12394;42.692;23.314;2024-03-08T05:20:41;8.33;;;4.03;;
24277;SDS011;12394;42.692;23.314;2024-03-08T05:23:07;7.67;;;4.20;;
24277;SDS011;12394;42.692;23.314;2024-03-08T05:25:33;5.00;;;3.47;;
24277;SDS011;12394;42.692;23.314;2024-03-08T05:27:59;5.77;;;3.63;;
24277;SDS011;12394;42.692;23.314;2024-03-08T05:30:24;6.77;;;4.27;;
24277;SDS011;12394;42.692;23.314;2024-03-08T05:32:50;7.90;;;4.70;;
24277;SDS011;12394;42.692;23.314;2024-03-08T05:35:15;5.93;;;4.37;;
24277;SDS011;12394;42.692;23.314;2024-03-08T05:37:41;6.50;;;4.47;;
24277;SDS011;12394;42.692;23.314;2024-03-08T05:40:10;6.23;;;4.60;;
24277;SDS011;12394;42.692;23.314;2024-03-08T05:42:35;7.53;;;4.60;;
24277;SDS011;12394;42.692;23.314;2024-03-08T05:45:02;6.97;;;4.70;;
24277;SDS011;12394;42.692;23.314;2024-03-08T05:47:31;7.10;;;5.23;;
24277;SDS011;12394;42.692;23.314;2024-03-08T05:49:58;5.93;;;4.33;;
24277;SDS011;12394;42.692;23.314;2024-03-08T05:52:24;7.10;;;5.00;;
24277;SDS011;12394;42.692;23.314;2024-03-08T05:54:51;7.07;;;4.83;;
24277;SDS011;12394;42.692;23.314;2024-03-08T05:57:16;7.20;;;5.10;;
24277;SDS011;12394;42.692;23.314;2024-03-08T05:59:42;6.23;;;4.70;;
24277;SDS011;12394;42.692;23.314;2024-03-08T06:02:07;7.37;;;5.80;;
24277;SDS011;12394;42.692;23.314;2024-03-08T06:04:33;8.80;;;5.03;;
24277;SDS011;12394;42.692;23.314;2024-03-08T06:06:58;7.40;;;5.10;;
24277;SDS011;12394;42.692;23.314;2024-03-08T06:09:24;7.27;;;5.10;;
24277;SDS011;12394;42.692;23.314;2024-03-08T06:11:51;9.53;;;4.57;;
24277;SDS011;12394;42.692;23.314;2024-03-08T06:14:19;10.07;;;5.63;;
24277;SDS011;12394;42.692;23.314;2024-03-08T06:16:45;14.07;;;5.87;;
24277;SDS011;12394;42.692;23.314;2024-03-08T06:19:12;16.87;;;6.10;;
24277;SDS011;12394;42.692;23.314;2024-03-08T06:21:38;8.10;;;5.33;;
24277;SDS011;12394;42.692;23.314;2024-03-08T06:24:04;8.73;;;5.80;;
24277;SDS011;12394;42.692;23.314;2024-03-08T06:26:30;6.40;;;4.33;;
24277;SDS011;12394;42.692;23.314;2024-03-08T06:28:56;7.90;;;5.40;;
24277;SDS011;12394;42.692;23.314;2024-03-08T06:31:21;6.80;;;4.87;;
24277;SDS011;12394;42.692;23.314;2024-03-08T06:33:47;10.27;;;4.90;;
24277;SDS011;12394;42.692;23.314;2024-03-08T06:36:18;5.83;;;4.97;;
24277;SDS011;12394;42.692;23.314;2024-03-08T06:38:47;7.17;;;5.00;;
24277;SDS011;12394;42.692;23.314;2024-03-08T06:41:13;6.73;;;4.63;;
24277;SDS011;12394;42.692;23.314;2024-03-08T06:43:43;5.50;;;4.40;;
24277;SDS011;12394;42.692;23.314;2024-03-08T06:46:10;6.87;;;4.90;;
24277;SDS011;12394;42.692;23.314;2024-03-08T06:48:39;7.80;;;4.73;;
24277;SDS011;12394;42.692;23.314;2024-03-08T06:51:05;10.40;;;4.97;;
24277;SDS011;12394;42.692;23.314;2024-03-08T06:53:31;6.90;;;4.70;;
24277;SDS011;12394;42.692;23.314;2024-03-08T06:55:57;6.33;;;4.57;;
24277;SDS011;12394;42.692;23.314;2024-03-08T06:58:26;6.67;;;4.53;;
24277;SDS011;12394;42.692;23.314;2024-03-08T07:00:52;7.03;;;5.13;;
24277;SDS011;12394;42.692;23.314;2024-03-08T07:03:18;7.70;;;6.30;;
24277;SDS011;12394;42.692;23.314;2024-03-08T07:05:44;9.47;;;4.40;;
24277;SDS011;12394;42.692;23.314;2024-03-08T07:08:10;6.93;;;5.27;;
24277;SDS011;12394;42.692;23.314;2024-03-08T07:10:39;8.10;;;5.40;;
24277;SDS011;12394;42.692;23.314;2024-03-08T07:13:06;6.47;;;5.03;;
24277;SDS011;12394;42.692;23.314;2024-03-08T07:15:32;7.70;;;5.07;;
24277;SDS011;12394;42.692;23.314;2024-03-08T07:17:58;14.90;;;8.40;;
24277;SDS011;12394;42.692;23.314;2024-03-08T07:20:24;6.73;;;5.00;;
24277;SDS011;12394;42.692;23.314;2024-03-08T07:22:50;7.53;;;4.83;;
24277;SDS011;12394;42.692;23.314;2024-03-08T07:25:16;8.30;;;5.23;;
24277;SDS011;12394;42.692;23.314;2024-03-08T07:27:49;6.17;;;4.20;;
24277;SDS011;12394;42.692;23.314;2024-03-08T07:30:16;8.73;;;4.87;;
24277;SDS011;12394;42.692;23.314;2024-03-08T07:33:00;6.67;;;4.87;;
24277;SDS011;12394;42.692;23.314;2024-03-08T07:35:27;10.90;;;7.47;;
24277;SDS011;12394;42.692;23.314;2024-03-08T07:37:54;11.73;;;6.30;;
24277;SDS011;12394;42.692;23.314;2024-03-08T07:40:20;10.93;;;6.17;;
24277;SDS011;12394;42.692;23.314;2024-03-08T07:42:46;9.57;;;6.17;;
24277;SDS011;12394;42.692;23.314;2024-03-08T07:45:12;8.60;;;6.33;;
24277;SDS011;12394;42.692;23.314;2024-03-08T07:47:38;10.17;;;6.17;;
24277;SDS011;12394;42.692;23.314;2024-03-08T07:50:03;8.07;;;5.70;;
24277;SDS011;12394;42.692;23.314;2024-03-08T07:52:29;10.33;;;5.67;;
24277;SDS011;12394;42.692;23.314;2024-03-08T07:54:54;13.13;;;5.97;;
24277;SDS011;12394;42.692;23.314;2024-03-08T07:57:20;7.53;;;5.40;;
24277;SDS011;12394;42.692;23.314;2024-03-08T07:59:46;7.27;;;5.80;;
24277;SDS011;12394;42.692;23.314;2024-03-08T08:02:11;7.67;;;6.20;;
24277;SDS011;12394;42.692;23.314;2024-03-08T08:04:37;9.93;;;6.40;;
24277;SDS011;12394;42.692;23.314;2024-03-08T08:07:24;9.17;;;5.53;;
24277;SDS011;12394;42.692;23.314;2024-03-08T08:09:52;9.13;;;5.40;;
24277;SDS011;12394;42.692;23.314;2024-03-08T08:12:18;11.23;;;6.37;;
24277;SDS011;12394;42.692;23.314;2024-03-08T08:14:43;7.97;;;6.00;;
24277;SDS011;12394;42.692;23.314;2024-03-08T08:17:09;13.37;;;6.97;;
24277;SDS011;12394;42.692;23.314;2024-03-08T08:19:35;14.23;;;6.57;;
24277;SDS011;12394;42.692;23.314;2024-03-08T08:22:03;15.37;;;7.73;;
24277;SDS011;12394;42.692;23.314;2024-03-08T08:24:30;9.73;;;4.80;;
24277;SDS011;12394;42.692;23.314;2024-03-08T08:26:55;4.40;;;3.93;;
24277;SDS011;12394;42.692;23.314;2024-03-08T08:29:21;4.43;;;3.70;;
24277;SDS011;12394;42.692;23.314;2024-03-08T08:31:48;4.80;;;4.30;;
24277;SDS011;12394;42.692;23.314;2024-03-08T08:34:15;11.87;;;4.70;;
24277;SDS011;12394;42.692;23.314;2024-03-08T08:36:42;22.37;;;17.10;;
24277;SDS011;12394;42.692;23.314;2024-03-08T08:39:07;7.27;;;4.63;;
24277;SDS011;12394;42.692;23.314;2024-03-08T08:41:38;8.57;;;4.53;;
24277;SDS011;12394;42.692;23.314;2024-03-08T08:44:04;11.90;;;4.87;;
24277;SDS011;12394;42.692;23.314;2024-03-08T08:46:36;5.47;;;4.00;;
24277;SDS011;12394;42.692;23.314;2024-03-08T08:49:03;4.70;;;3.47;;
24277;SDS011;12394;42.692;23.314;2024-03-08T08:51:35;4.20;;;3.43;;
24277;SDS011;12394;42.692;23.314;2024-03-08T08:54:00;4.20;;;3.07;;
24277;SDS011;12394;42.692;23.314;2024-03-08T08:56:26;5.50;;;2.83;;
24277;SDS011;12394;42.692;23.314;2024-03-08T08:58:51;3.03;;;2.40;;
24277;SDS011;12394;42.692;23.314;2024-03-08T09:01:20;3.53;;;3.10;;
24277;SDS011;12394;42.692;23.314;2024-03-08T09:03:47;7.00;;;4.70;;
24277;SDS011;12394;42.692;23.314;2024-03-08T09:06:12;9.13;;;4.77;;
24277;SDS011;12394;42.692;23.314;2024-03-08T09:08:41;6.27;;;4.13;;
24277;SDS011;12394;42.692;23.314;2024-03-08T09:11:06;5.50;;;3.80;;
24277;SDS011;12394;42.692;23.314;2024-03-08T09:13:33;13.43;;;4.87;;
24277;SDS011;12394;42.692;23.314;2024-03-08T09:16:02;5.47;;;3.40;;
24277;SDS011;12394;42.692;23.314;2024-03-08T09:18:30;4.43;;;3.53;;
24277;SDS011;12394;42.692;23.314;2024-03-08T09:20:57;14.80;;;4.40;;
24277;SDS011;12394;42.692;23.314;2024-03-08T09:23:23;3.00;;;2.33;;
24277;SDS011;12394;42.692;23.314;2024-03-08T09:25:49;6.17;;;3.70;;
24277;SDS011;12394;42.692;23.314;2024-03-08T09:28:15;10.90;;;4.50;;
24277;SDS011;12394;42.692;23.314;2024-03-08T09:30:41;4.70;;;4.07;;
24277;SDS011;12394;42.692;23.314;2024-03-08T09:33:06;8.30;;;4.77;;
24277;SDS011;12394;42.692;23.314;2024-03-08T09:35:32;9.40;;;4.50;;
24277;SDS011;12394;42.692;23.314;2024-03-08T09:37:58;8.97;;;5.20;;
24277;SDS011;12394;42.692;23.314;2024-03-08T09:40:23;6.57;;;4.80;;
24277;SDS011;12394;42.692;23.314;2024-03-08T09:42:50;5.90;;;5.30;;
24277;SDS011;12394;42.692;23.314;2024-03-08T09:45:17;4.67;;;3.73;;
24277;SDS011;12394;42.692;23.314;2024-03-08T09:47:47;4.70;;;4.13;;
24277;SDS011;12394;42.692;23.314;2024-03-08T09:50:14;10.63;;;4.50;;
24277;SDS011;12394;42.692;23.314;2024-03-08T09:52:40;5.40;;;3.30;;
24277;SDS011;12394;42.692;23.314;2024-03-08T09:55:06;4.67;;;3.20;;
24277;SDS011;12394;42.692;23.314;2024-03-08T09:57:36;6.17;;;3.10;;
24277;SDS011;12394;42.692;23.314;2024-03-08T10:00:02;3.73;;;2.80;;
24277;SDS011;12394;42.692;23.314;2024-03-08T10:02:46;7.33;;;2.93;;
24277;SDS011;12394;42.692;23.314;2024-03-08T10:05:12;4.87;;;3.33;;
24277;SDS011;12394;42.692;23.314;2024-03-08T10:07:39;4.27;;;3.30;;
24277;SDS011;12394;42.692;23.314;2024-03-08T10:10:04;7.23;;;3.50;;
24277;SDS011;12394;42.692;23.314;2024-03-08T10:12:30;4.87;;;3.20;;
24277;SDS011;12394;42.692;23.314;2024-03-08T10:14:58;3.73;;;3.37;;
24277;SDS011;12394;42.692;23.314;2024-03-08T10:17:24;4.63;;;3.13;;
24277;SDS011;12394;42.692;23.314;2024-03-08T10:19:50;4.70;;;3.40;;
24277;SDS011;12394;42.692;23.314;2024-03-08T10:22:19;5.07;;;2.80;;
24277;SDS011;12394;42.692;23.314;2024-03-08T10:24:48;3.13;;;2.20;;
24277;SDS011;12394;42.692;23.314;2024-03-08T10:27:14;2.80;;;2.40;;
24277;SDS011;12394;42.692;23.314;2024-03-08T10:29:42;9.77;;;4.30;;
24277;SDS011;12394;42.692;23.314;2024-03-08T10:32:09;18.23;;;10.33;;
24277;SDS011;12394;42.692;23.314;2024-03-08T10:34:35;7.73;;;4.00;;
24277;SDS011;12394;42.692;23.314;2024-03-08T10:37:03;8.70;;;2.80;;
24277;SDS011;12394;42.692;23.314;2024-03-08T10:39:32;14.43;;;9.80;;
24277;SDS011;12394;42.692;23.314;2024-03-08T10:42:02;5.80;;;3.03;;
24277;SDS011;12394;42.692;23.314;2024-03-08T10:47:01;11.87;;;3.47;;
24277;SDS011;12394;42.692;23.314;2024-03-08T10:49:32;18.77;;;11.70;;
24277;SDS011;12394;42.692;23.314;2024-03-08T10:52:04;27.00;;;17.23;;
24277;SDS011;12394;42.692;23.314;2024-03-08T10:54:33;20.83;;;12.27;;
24277;SDS011;12394;42.692;23.314;2024-03-08T10:57:03;19.07;;;12.47;;
24277;SDS011;12394;42.692;23.314;2024-03-08T10:59:31;2.67;;;2.13;;
24277;SDS011;12394;42.692;23.314;2024-03-08T11:01:59;3.87;;;3.00;;
24277;SDS011;12394;42.692;23.314;2024-03-08T11:04:25;13.10;;;9.07;;
24277;SDS011;12394;42.692;23.314;2024-03-08T11:06:50;6.47;;;5.03;;
24277;SDS011;12394;42.692;23.314;2024-03-08T11:09:37;13.80;;;10.07;;
24277;SDS011;12394;42.692;23.314;2024-03-08T11:12:19;15.63;;;7.27;;
24277;SDS011;12394;42.692;23.314;2024-03-08T11:15:00;16.00;;;8.13;;
24277;SDS011;12394;42.692;23.314;2024-03-08T11:19:58;12.50;;;6.13;;
24277;SDS011;12394;42.692;23.314;2024-03-08T11:22:27;9.13;;;4.17;;
24277;SDS011;12394;42.692;23.314;2024-03-08T11:25:02;8.67;;;3.00;;
24277;SDS011;12394;42.692;23.314;2024-03-08T11:27:33;7.50;;;4.70;;
24277;SDS011;12394;42.692;23.314;2024-03-08T11:30:05;11.47;;;7.20;;
24277;SDS011;12394;42.692;23.314;2024-03-08T11:32:45;5.00;;;3.73;;
24277;SDS011;12394;42.692;23.314;2024-03-08T11:35:20;7.13;;;2.70;;
24277;SDS011;12394;42.692;23.314;2024-03-08T11:37:48;4.83;;;3.63;;
24277;SDS011;12394;42.692;23.314;2024-03-08T11:40:13;5.87;;;2.63;;
24277;SDS011;12394;42.692;23.314;2024-03-08T11:42:47;5.07;;;2.53;;
24277;SDS011;12394;42.692;23.314;2024-03-08T11:45:17;2.93;;;2.00;;
24277;SDS011;12394;42.692;23.314;2024-03-08T11:47:46;3.63;;;2.13;;
24277;SDS011;12394;42.692;23.314;2024-03-08T11:50:12;3.07;;;2.30;;
24277;SDS011;12394;42.692;23.314;2024-03-08T11:52:39;2.30;;;1.60;;
24277;SDS011;12394;42.692;23.314;2024-03-08T11:55:06;2.10;;;1.77;;
24277;SDS011;12394;42.692;23.314;2024-03-08T11:57:32;4.63;;;2.13;;
24277;SDS011;12394;42.692;23.314;2024-03-08T11:59:58;8.10;;;2.90;;
24277;SDS011;12394;42.692;23.314;2024-03-08T12:02:32;2.10;;;1.73;;
24277;SDS011;12394;42.692;23.314;2024-03-08T12:05:00;12.13;;;3.30;;
24277;SDS011;12394;42.692;23.314;2024-03-08T12:07:28;5.50;;;3.00;;
24277;SDS011;12394;42.692;23.314;2024-03-08T12:10:15;3.17;;;2.20;;
24277;SDS011;12394;42.692;23.314;2024-03-08T12:12:47;8.10;;;2.07;;
24277;SDS011;12394;42.692;23.314;2024-03-08T12:15:18;2.40;;;2.00;;
24277;SDS011;12394;42.692;23.314;2024-03-08T12:17:47;2.43;;;2.10;;
24277;SDS011;12394;42.692;23.314;2024-03-08T12:23:13;3.93;;;2.07;;
24277;SDS011;12394;42.692;23.314;2024-03-08T12:25:40;2.60;;;2.00;;
24277;SDS011;12394;42.692;23.314;2024-03-08T12:28:12;2.57;;;2.20;;
24277;SDS011;12394;42.692;23.314;2024-03-08T12:30:46;2.43;;;2.07;;
24277;SDS011;12394;42.692;23.314;2024-03-08T12:33:19;2.63;;;2.00;;
24277;SDS011;12394;42.692;23.314;2024-03-08T12:35:51;4.87;;;2.20;;
24277;SDS011;12394;42.692;23.314;2024-03-08T12:38:23;2.20;;;2.00;;
24277;SDS011;12394;42.692;23.314;2024-03-08T12:40:54;7.20;;;2.53;;
24277;SDS011;12394;42.692;23.314;2024-03-08T12:43:21;4.87;;;2.80;;
24277;SDS011;12394;42.692;23.314;2024-03-08T12:45:47;7.63;;;3.27;;
24277;SDS011;12394;42.692;23.314;2024-03-08T12:48:13;2.80;;;2.40;;
24277;SDS011;12394;42.692;23.314;2024-03-08T12:50:40;3.80;;;1.83;;
24277;SDS011;12394;42.692;23.314;2024-03-08T12:53:09;4.40;;;2.10;;
24277;SDS011;12394;42.692;23.314;2024-03-08T12:55:34;2.97;;;2.07;;
24277;SDS011;12394;42.692;23.314;2024-03-08T12:57:59;3.87;;;2.70;;
24277;SDS011;12394;42.692;23.314;2024-03-08T13:00:26;5.13;;;2.83;;
24277;SDS011;12394;42.692;23.314;2024-03-08T13:02:53;3.20;;;2.00;;
24277;SDS011;12394;42.692;23.314;2024-03-08T13:05:20;7.80;;;2.73;;
24277;SDS011;12394;42.692;23.314;2024-03-08T13:07:45;2.47;;;1.80;;
24277;SDS011;12394;42.692;23.314;2024-03-08T13:10:15;2.73;;;1.90;;
24277;SDS011;12394;42.692;23.314;2024-03-08T13:12:44;3.80;;;2.87;;
24277;SDS011;12394;42.692;23.314;2024-03-08T13:15:10;2.60;;;1.93;;
24277;SDS011;12394;42.692;23.314;2024-03-08T13:17:39;3.40;;;1.93;;
24277;SDS011;12394;42.692;23.314;2024-03-08T13:20:08;2.70;;;2.10;;
24277;SDS011;12394;42.692;23.314;2024-03-08T13:22:41;4.17;;;2.60;;
24277;SDS011;12394;42.692;23.314;2024-03-08T13:25:07;2.47;;;2.00;;
24277;SDS011;12394;42.692;23.314;2024-03-08T13:27:38;2.30;;;1.80;;
24277;SDS011;12394;42.692;23.314;2024-03-08T13:30:10;6.27;;;3.07;;
24277;SDS011;12394;42.692;23.314;2024-03-08T13:32:43;4.57;;;2.37;;
24277;SDS011;12394;42.692;23.314;2024-03-08T13:35:09;2.60;;;2.17;;
24277;SDS011;12394;42.692;23.314;2024-03-08T13:37:39;2.57;;;2.17;;
24277;SDS011;12394;42.692;23.314;2024-03-08T13:40:24;4.73;;;2.50;;
24277;SDS011;12394;42.692;23.314;2024-03-08T13:42:51;3.13;;;2.20;;
24277;SDS011;12394;42.692;23.314;2024-03-08T13:45:16;2.00;;;1.80;;
24277;SDS011;12394;42.692;23.314;2024-03-08T13:47:49;4.63;;;2.40;;
24277;SDS011;12394;42.692;23.314;2024-03-08T13:50:16;2.70;;;2.07;;
24277;SDS011;12394;42.692;23.314;2024-03-08T13:52:46;5.23;;;1.77;;
24277;SDS011;12394;42.692;23.314;2024-03-08T13:55:19;4.17;;;2.43;;
24277;SDS011;12394;42.692;23.314;2024-03-08T13:57:45;2.93;;;1.70;;
24277;SDS011;12394;42.692;23.314;2024-03-08T14:00:11;3.00;;;2.13;;
24277;SDS011;12394;42.692;23.314;2024-03-08T14:02:38;3.43;;;2.10;;
24277;SDS011;12394;42.692;23.314;2024-03-08T14:05:06;5.13;;;2.20;;
24277;SDS011;12394;42.692;23.314;2024-03-08T14:07:34;8.20;;;5.93;;
24277;SDS011;12394;42.692;23.314;2024-03-08T14:10:00;3.67;;;2.20;;
24277;SDS011;12394;42.692;23.314;2024-03-08T14:12:25;4.83;;;2.80;;
24277;SDS011;12394;42.692;23.314;2024-03-08T14:14:52;2.23;;;2.00;;
24277;SDS011;12394;42.692;23.314;2024-03-08T14:17:18;2.53;;;1.90;;
24277;SDS011;12394;42.692;23.314;2024-03-08T14:19:43;3.77;;;2.57;;
24277;SDS011;12394;42.692;23.314;2024-03-08T14:22:09;2.73;;;2.20;;
24277;SDS011;12394;42.692;23.314;2024-03-08T14:24:39;4.30;;;2.10;;
24277;SDS011;12394;42.692;23.314;2024-03-08T14:27:05;5.87;;;2.33;;
24277;SDS011;12394;42.692;23.314;2024-03-08T14:29:33;3.73;;;2.30;;
24277;SDS011;12394;42.692;23.314;2024-03-08T14:31:59;5.17;;;2.70;;
24277;SDS011;12394;42.692;23.314;2024-03-08T14:34:25;4.63;;;3.23;;
24277;SDS011;12394;42.692;23.314;2024-03-08T14:36:52;9.47;;;2.57;;
24277;SDS011;12394;42.692;23.314;2024-03-08T14:39:18;3.10;;;2.63;;
24277;SDS011;12394;42.692;23.314;2024-03-08T14:41:51;6.07;;;2.83;;
24277;SDS011;12394;42.692;23.314;2024-03-08T14:44:19;4.57;;;2.90;;
24277;SDS011;12394;42.692;23.314;2024-03-08T14:46:45;5.43;;;2.80;;
24277;SDS011;12394;42.692;23.314;2024-03-08T14:49:13;4.07;;;3.17;;
24277;SDS011;12394;42.692;23.314;2024-03-08T14:51:39;3.53;;;2.70;;
24277;SDS011;12394;42.692;23.314;2024-03-08T14:54:04;4.07;;;3.10;;
24277;SDS011;12394;42.692;23.314;2024-03-08T14:56:36;4.03;;;2.87;;
24277;SDS011;12394;42.692;23.314;2024-03-08T14:59:07;5.80;;;3.47;;
24277;SDS011;12394;42.692;23.314;2024-03-08T15:01:34;3.67;;;2.73;;
24277;SDS011;12394;42.692;23.314;2024-03-08T15:04:03;3.73;;;3.17;;
24277;SDS011;12394;42.692;23.314;2024-03-08T15:06:40;9.13;;;3.20;;
24277;SDS011;12394;42.692;23.314;2024-03-08T15:09:07;4.03;;;3.00;;
24277;SDS011;12394;42.692;23.314;2024-03-08T15:11:40;3.53;;;2.70;;
24277;SDS011;12394;42.692;23.314;2024-03-08T15:14:07;6.90;;;3.40;;
24277;SDS011;12394;42.692;23.314;2024-03-08T15:16:39;6.00;;;4.93;;
24277;SDS011;12394;42.692;23.314;2024-03-08T15:19:08;5.90;;;3.20;;
24277;SDS011;12394;42.692;23.314;2024-03-08T15:21:36;7.00;;;3.70;;
24277;SDS011;12394;42.692;23.314;2024-03-08T15:24:02;11.20;;;4.50;;
24277;SDS011;12394;42.692;23.314;2024-03-08T15:26:29;7.47;;;4.20;;
24277;SDS011;12394;42.692;23.314;2024-03-08T15:28:56;12.30;;;5.50;;
24277;SDS011;12394;42.692;23.314;2024-03-08T15:31:22;11.13;;;3.73;;
24277;SDS011;12394;42.692;23.314;2024-03-08T15:33:50;9.90;;;5.40;;
24277;SDS011;12394;42.692;23.314;2024-03-08T15:36:42;7.33;;;4.00;;
24277;SDS011;12394;42.692;23.314;2024-03-08T15:39:08;12.20;;;3.87;;
24277;SDS011;12394;42.692;23.314;2024-03-08T15:41:35;6.73;;;3.73;;
24277;SDS011;12394;42.692;23.314;2024-03-08T15:44:00;5.03;;;4.10;;
24277;SDS011;12394;42.692;23.314;2024-03-08T15:46:26;5.03;;;3.97;;
24277;SDS011;12394;42.692;23.314;2024-03-08T15:48:51;12.03;;;4.00;;
24277;SDS011;12394;42.692;23.314;2024-03-08T15:51:19;5.80;;;4.07;;
24277;SDS011;12394;42.692;23.314;2024-03-08T15:53:44;7.03;;;4.50;;
24277;SDS011;12394;42.692;23.314;2024-03-08T15:56:19;7.03;;;3.70;;
24277;SDS011;12394;42.692;23.314;2024-03-08T15:58:47;5.27;;;3.40;;
24277;SDS011;12394;42.692;23.314;2024-03-08T16:01:13;7.23;;;4.03;;
24277;SDS011;12394;42.692;23.314;2024-03-08T16:03:42;5.07;;;3.97;;
24277;SDS011;12394;42.692;23.314;2024-03-08T16:06:10;5.97;;;3.80;;
24277;SDS011;12394;42.692;23.314;2024-03-08T16:08:36;7.93;;;3.90;;
24277;SDS011;12394;42.692;23.314;2024-03-08T16:11:01;11.07;;;4.47;;
24277;SDS011;12394;42.692;23.314;2024-03-08T16:13:32;7.20;;;4.57;;
24277;SDS011;12394;42.692;23.314;2024-03-08T16:15:58;7.07;;;3.83;;
24277;SDS011;12394;42.692;23.314;2024-03-08T16:18:24;8.83;;;4.50;;
24277;SDS011;12394;42.692;23.314;2024-03-08T16:20:51;7.30;;;4.47;;
24277;SDS011;12394;42.692;23.314;2024-03-08T16:23:17;7.93;;;5.30;;
24277;SDS011;12394;42.692;23.314;2024-03-08T16:25:43;5.10;;;3.77;;
24277;SDS011;12394;42.692;23.314;2024-03-08T16:28:10;6.07;;;4.50;;
24277;SDS011;12394;42.692;23.314;2024-03-08T16:30:39;5.17;;;4.30;;
24277;SDS011;12394;42.692;23.314;2024-03-08T16:33:07;6.73;;;4.00;;
24277;SDS011;12394;42.692;23.314;2024-03-08T16:35:33;6.90;;;4.43;;
24277;SDS011;12394;42.692;23.314;2024-03-08T16:38:04;10.03;;;5.53;;
24277;SDS011;12394;42.692;23.314;2024-03-08T16:40:29;7.73;;;5.13;;
24277;SDS011;12394;42.692;23.314;2024-03-08T16:42:55;5.93;;;4.40;;
24277;SDS011;12394;42.692;23.314;2024-03-08T16:45:22;7.07;;;4.47;;
24277;SDS011;12394;42.692;23.314;2024-03-08T16:47:48;7.63;;;5.20;;
24277;SDS011;12394;42.692;23.314;2024-03-08T16:50:19;8.37;;;5.33;;
24277;SDS011;12394;42.692;23.314;2024-03-08T16:52:45;8.97;;;5.70;;
24277;SDS011;12394;42.692;23.314;2024-03-08T16:55:13;8.37;;;5.40;;
24277;SDS011;12394;42.692;23.314;2024-03-08T16:57:43;7.97;;;5.10;;
24277;SDS011;12394;42.692;23.314;2024-03-08T17:00:20;6.97;;;5.17;;
24277;SDS011;12394;42.692;23.314;2024-03-08T17:02:48;7.93;;;5.00;;
24277;SDS011;12394;42.692;23.314;2024-03-08T17:05:14;8.03;;;5.43;;